sensor_id;sensor_type;location;lat;lon;timestamp;temperature;humidity
4960;DHT22;2495;48.200;11.532;2022-07-29T00:03:12;24.50;55.40
4960;DHT22;2495;48.200;11.532;2022-07-29T00:08:13;24.50;55.70
4960;DHT22;2495;48.200;11.532;2022-07-29T00:13:14;24.50;55.80
4960;DHT22;2495;48.200;11.532;2022-07-29T00:18:15;24.60;56.20
4960;DHT22;2495;48.200;11.532;2022-07-29T00:23:17;24.70;55.70
4960;DHT22;2495;48.200;11.532;2022-07-29T00:28:18;24.70;55.80
4960;DHT22;2495;48.200;11.532;2022-07-29T00:33:19;24.60;56.50
4960;DHT22;2495;48.200;11.532;2022-07-29T00:38:20;24.70;56.40
4960;DHT22;2495;48.200;11.532;2022-07-29T00:43:22;24.60;56.40
4960;DHT22;2495;48.200;11.532;2022-07-29T00:48:23;24.50;56.70
4960;DHT22;2495;48.200;11.532;2022-07-29T00:53:24;24.40;57.10
4960;DHT22;2495;48.200;11.532;2022-07-29T00:58:25;24.30;57.50
4960;DHT22;2495;48.200;11.532;2022-07-29T01:03:27;24.20;58.30
4960;DHT22;2495;48.200;11.532;2022-07-29T01:08:28;24.20;57.90
4960;DHT22;2495;48.200;11.532;2022-07-29T01:13:29;24.10;58.10
4960;DHT22;2495;48.200;11.532;2022-07-29T01:18:34;24.10;58.30
4960;DHT22;2495;48.200;11.532;2022-07-29T01:29:30;24.00;58.80
4960;DHT22;2495;48.200;11.532;2022-07-29T01:34:41;23.90;59.10
4960;DHT22;2495;48.200;11.532;2022-07-29T01:39:43;23.90;59.60
4960;DHT22;2495;48.200;11.532;2022-07-29T01:44:56;23.80;60.00
4960;DHT22;2495;48.200;11.532;2022-07-29T01:49:55;23.70;60.70
4960;DHT22;2495;48.200;11.532;2022-07-29T01:54:57;23.60;61.30
4960;DHT22;2495;48.200;11.532;2022-07-29T01:59:58;23.60;61.80
4960;DHT22;2495;48.200;11.532;2022-07-29T02:04:59;23.50;62.00
4960;DHT22;2495;48.200;11.532;2022-07-29T02:10:00;23.50;62.60
4960;DHT22;2495;48.200;11.532;2022-07-29T02:15:01;23.40;62.80
4960;DHT22;2495;48.200;11.532;2022-07-29T02:20:03;23.40;62.90
4960;DHT22;2495;48.200;11.532;2022-07-29T02:25:05;23.40;63.10
4960;DHT22;2495;48.200;11.532;2022-07-29T02:30:06;23.40;64.20
4960;DHT22;2495;48.200;11.532;2022-07-29T02:35:08;23.50;63.60
4960;DHT22;2495;48.200;11.532;2022-07-29T02:40:12;23.60;64.10
4960;DHT22;2495;48.200;11.532;2022-07-29T02:45:13;23.70;63.70
4960;DHT22;2495;48.200;11.532;2022-07-29T02:50:23;23.70;63.10
4960;DHT22;2495;48.200;11.532;2022-07-29T02:55:37;23.60;63.80
4960;DHT22;2495;48.200;11.532;2022-07-29T03:00:39;23.50;64.40
4960;DHT22;2495;48.200;11.532;2022-07-29T03:05:40;23.40;64.40
4960;DHT22;2495;48.200;11.532;2022-07-29T03:10:43;23.30;64.80
4960;DHT22;2495;48.200;11.532;2022-07-29T03:15:47;23.20;65.10
4960;DHT22;2495;48.200;11.532;2022-07-29T03:20:47;23.10;65.40
4960;DHT22;2495;48.200;11.532;2022-07-29T03:25:49;23.10;65.00
4960;DHT22;2495;48.200;11.532;2022-07-29T03:30:50;23.00;65.30
4960;DHT22;2495;48.200;11.532;2022-07-29T03:35:51;22.90;65.80
4960;DHT22;2495;48.200;11.532;2022-07-29T03:41:00;22.80;66.20
4960;DHT22;2495;48.200;11.532;2022-07-29T03:46:02;22.80;67.50
4960;DHT22;2495;48.200;11.532;2022-07-29T03:51:03;22.70;66.60
4960;DHT22;2495;48.200;11.532;2022-07-29T03:56:05;22.70;66.70
4960;DHT22;2495;48.200;11.532;2022-07-29T04:01:06;22.70;66.90
4960;DHT22;2495;48.200;11.532;2022-07-29T04:06:07;22.70;67.20
4960;DHT22;2495;48.200;11.532;2022-07-29T04:11:09;22.60;67.50
4960;DHT22;2495;48.200;11.532;2022-07-29T04:16:10;22.40;67.50
4960;DHT22;2495;48.200;11.532;2022-07-29T04:21:11;22.30;67.70
4960;DHT22;2495;48.200;11.532;2022-07-29T04:26:12;22.30;67.90
4960;DHT22;2495;48.200;11.532;2022-07-29T04:31:14;22.30;68.10
4960;DHT22;2495;48.200;11.532;2022-07-29T04:36:15;22.40;69.20
4960;DHT22;2495;48.200;11.532;2022-07-29T04:41:16;22.60;68.40
4960;DHT22;2495;48.200;11.532;2022-07-29T04:46:17;22.70;68.20
4960;DHT22;2495;48.200;11.532;2022-07-29T04:51:19;22.70;68.00
4960;DHT22;2495;48.200;11.532;2022-07-29T04:56:20;22.80;67.90
4960;DHT22;2495;48.200;11.532;2022-07-29T05:01:21;23.00;68.80
4960;DHT22;2495;48.200;11.532;2022-07-29T05:06:22;23.20;68.20
4960;DHT22;2495;48.200;11.532;2022-07-29T05:11:24;23.20;68.00
4960;DHT22;2495;48.200;11.532;2022-07-29T05:16:25;23.40;68.80
4960;DHT22;2495;48.200;11.532;2022-07-29T05:21:26;23.40;68.10
4960;DHT22;2495;48.200;11.532;2022-07-29T05:26:28;23.30;68.00
4960;DHT22;2495;48.200;11.532;2022-07-29T05:31:29;23.40;67.80
4960;DHT22;2495;48.200;11.532;2022-07-29T05:36:30;23.50;67.70
4960;DHT22;2495;48.200;11.532;2022-07-29T05:41:32;23.60;68.20
4960;DHT22;2495;48.200;11.532;2022-07-29T05:46:33;23.90;68.10
4960;DHT22;2495;48.200;11.532;2022-07-29T05:51:34;24.10;67.10
4960;DHT22;2495;48.200;11.532;2022-07-29T05:56:35;24.10;66.40
4960;DHT22;2495;48.200;11.532;2022-07-29T06:01:36;24.20;65.90
4960;DHT22;2495;48.200;11.532;2022-07-29T06:06:38;24.30;65.40
4960;DHT22;2495;48.200;11.532;2022-07-29T06:11:39;24.40;65.10
4960;DHT22;2495;48.200;11.532;2022-07-29T06:16:40;24.60;64.50
4960;DHT22;2495;48.200;11.532;2022-07-29T06:21:42;24.70;64.00
4960;DHT22;2495;48.200;11.532;2022-07-29T06:26:43;24.80;63.50
4960;DHT22;2495;48.200;11.532;2022-07-29T06:31:44;25.00;62.90
4960;DHT22;2495;48.200;11.532;2022-07-29T06:36:45;25.20;62.30
4960;DHT22;2495;48.200;11.532;2022-07-29T06:41:47;25.50;62.60
4960;DHT22;2495;48.200;11.532;2022-07-29T06:46:48;25.70;61.70
4960;DHT22;2495;48.200;11.532;2022-07-29T06:51:49;25.90;60.70
4960;DHT22;2495;48.200;11.532;2022-07-29T06:56:50;26.00;60.20
4960;DHT22;2495;48.200;11.532;2022-07-29T07:01:52;26.10;60.00
4960;DHT22;2495;48.200;11.532;2022-07-29T07:06:53;26.30;60.00
4960;DHT22;2495;48.200;11.532;2022-07-29T07:11:54;26.60;59.60
4960;DHT22;2495;48.200;11.532;2022-07-29T07:16:55;27.10;59.10
4960;DHT22;2495;48.200;11.532;2022-07-29T07:21:57;27.50;57.60
4960;DHT22;2495;48.200;11.532;2022-07-29T07:26:58;28.60;56.60
4960;DHT22;2495;48.200;11.532;2022-07-29T07:31:59;29.30;54.50
4960;DHT22;2495;48.200;11.532;2022-07-29T07:37:02;29.70;52.80
4960;DHT22;2495;48.200;11.532;2022-07-29T07:42:03;30.20;52.00
4960;DHT22;2495;48.200;11.532;2022-07-29T07:47:05;30.80;50.90
4960;DHT22;2495;48.200;11.532;2022-07-29T07:52:06;31.30;50.50
4960;DHT22;2495;48.200;11.532;2022-07-29T07:57:07;31.60;47.90
4960;DHT22;2495;48.200;11.532;2022-07-29T08:02:08;31.90;47.00
4960;DHT22;2495;48.200;11.532;2022-07-29T08:07:09;32.40;46.10
4960;DHT22;2495;48.200;11.532;2022-07-29T08:12:11;32.90;44.80
4960;DHT22;2495;48.200;11.532;2022-07-29T08:17:12;33.60;43.60
4960;DHT22;2495;48.200;11.532;2022-07-29T08:22:14;33.90;43.10
4960;DHT22;2495;48.200;11.532;2022-07-29T08:27:15;34.00;42.30
4960;DHT22;2495;48.200;11.532;2022-07-29T08:32:16;34.20;42.10
4960;DHT22;2495;48.200;11.532;2022-07-29T08:37:17;34.60;41.30
4960;DHT22;2495;48.200;11.532;2022-07-29T08:42:19;35.00;40.30
4960;DHT22;2495;48.200;11.532;2022-07-29T08:47:20;35.40;39.40
4960;DHT22;2495;48.200;11.532;2022-07-29T08:52:21;35.20;40.40
4960;DHT22;2495;48.200;11.532;2022-07-29T08:57:22;35.20;40.00
4960;DHT22;2495;48.200;11.532;2022-07-29T09:02:24;34.50;40.10
4960;DHT22;2495;48.200;11.532;2022-07-29T09:07:25;33.70;40.90
4960;DHT22;2495;48.200;11.532;2022-07-29T09:12:26;33.50;41.90
4960;DHT22;2495;48.200;11.532;2022-07-29T09:17:47;34.70;39.70
4960;DHT22;2495;48.200;11.532;2022-07-29T09:22:51;34.70;39.60
4960;DHT22;2495;48.200;11.532;2022-07-29T09:27:51;34.00;40.10
4960;DHT22;2495;48.200;11.532;2022-07-29T09:32:53;33.70;40.30
4960;DHT22;2495;48.200;11.532;2022-07-29T09:37:54;34.10;39.40
4960;DHT22;2495;48.200;11.532;2022-07-29T09:42:55;34.30;39.60
4960;DHT22;2495;48.200;11.532;2022-07-29T09:47:57;34.70;39.20
4960;DHT22;2495;48.200;11.532;2022-07-29T09:53:01;34.90;38.90
4960;DHT22;2495;48.200;11.532;2022-07-29T09:58:15;34.20;39.70
4960;DHT22;2495;48.200;11.532;2022-07-29T10:03:16;33.40;40.80
4960;DHT22;2495;48.200;11.532;2022-07-29T10:08:19;33.00;41.10
4960;DHT22;2495;48.200;11.532;2022-07-29T10:13:18;33.40;40.70
4960;DHT22;2495;48.200;11.532;2022-07-29T10:18:19;33.10;40.70
4960;DHT22;2495;48.200;11.532;2022-07-29T10:23:21;33.20;41.10
4960;DHT22;2495;48.200;11.532;2022-07-29T10:28:22;33.60;40.60
4960;DHT22;2495;48.200;11.532;2022-07-29T10:33:51;35.10;38.70
4960;DHT22;2495;48.200;11.532;2022-07-29T10:44:00;34.20;40.40
4960;DHT22;2495;48.200;11.532;2022-07-29T10:49:13;34.90;39.50
4960;DHT22;2495;48.200;11.532;2022-07-29T10:54:45;36.70;37.30
4960;DHT22;2495;48.200;11.532;2022-07-29T11:05:08;39.70;34.30
4960;DHT22;2495;48.200;11.532;2022-07-29T11:15:20;38.70;34.40
4960;DHT22;2495;48.200;11.532;2022-07-29T11:20:40;38.50;34.30
4960;DHT22;2495;48.200;11.532;2022-07-29T11:25:43;39.10;33.20
4960;DHT22;2495;48.200;11.532;2022-07-29T11:30:51;37.60;34.10
4960;DHT22;2495;48.200;11.532;2022-07-29T11:36:10;36.30;35.70
4960;DHT22;2495;48.200;11.532;2022-07-29T11:46:41;35.00;36.50
4960;DHT22;2495;48.200;11.532;2022-07-29T11:51:19;35.00;36.20
4960;DHT22;2495;48.200;11.532;2022-07-29T11:56:20;34.90;36.20
4960;DHT22;2495;48.200;11.532;2022-07-29T12:01:21;34.60;35.60
4960;DHT22;2495;48.200;11.532;2022-07-29T12:06:23;34.20;35.50
4960;DHT22;2495;48.200;11.532;2022-07-29T12:11:24;33.80;35.70
4960;DHT22;2495;48.200;11.532;2022-07-29T12:16:34;33.40;35.90
4960;DHT22;2495;48.200;11.532;2022-07-29T12:21:26;33.30;36.80
4960;DHT22;2495;48.200;11.532;2022-07-29T12:26:28;33.30;36.50
4960;DHT22;2495;48.200;11.532;2022-07-29T12:31:29;33.20;36.70
4960;DHT22;2495;48.200;11.532;2022-07-29T12:36:30;33.40;36.80
4960;DHT22;2495;48.200;11.532;2022-07-29T12:41:31;33.20;37.00
4960;DHT22;2495;48.200;11.532;2022-07-29T12:46:33;33.30;36.80
4960;DHT22;2495;48.200;11.532;2022-07-29T12:51:35;33.20;36.90
4960;DHT22;2495;48.200;11.532;2022-07-29T12:56:36;32.80;37.10
4960;DHT22;2495;48.200;11.532;2022-07-29T13:01:37;32.30;37.40
4960;DHT22;2495;48.200;11.532;2022-07-29T13:06:44;32.10;37.80
4960;DHT22;2495;48.200;11.532;2022-07-29T13:11:50;31.80;38.00
4960;DHT22;2495;48.200;11.532;2022-07-29T13:16:59;31.40;38.20
4960;DHT22;2495;48.200;11.532;2022-07-29T13:22:00;31.10;38.60
4960;DHT22;2495;48.200;11.532;2022-07-29T13:27:01;30.90;38.70
4960;DHT22;2495;48.200;11.532;2022-07-29T13:32:03;30.80;39.20
4960;DHT22;2495;48.200;11.532;2022-07-29T13:37:04;30.60;39.70
4960;DHT22;2495;48.200;11.532;2022-07-29T13:42:06;30.50;39.90
4960;DHT22;2495;48.200;11.532;2022-07-29T13:47:07;30.50;40.40
4960;DHT22;2495;48.200;11.532;2022-07-29T13:52:08;30.40;40.60
4960;DHT22;2495;48.200;11.532;2022-07-29T13:57:09;30.40;40.70
4960;DHT22;2495;48.200;11.532;2022-07-29T14:02:11;30.40;40.80
4960;DHT22;2495;48.200;11.532;2022-07-29T14:07:11;30.40;40.90
4960;DHT22;2495;48.200;11.532;2022-07-29T14:12:13;30.50;40.90
4960;DHT22;2495;48.200;11.532;2022-07-29T14:17:14;30.60;40.80
4960;DHT22;2495;48.200;11.532;2022-07-29T14:22:15;30.60;40.50
4960;DHT22;2495;48.200;11.532;2022-07-29T14:27:17;30.30;40.70
4960;DHT22;2495;48.200;11.532;2022-07-29T14:32:18;30.30;40.90
4960;DHT22;2495;48.200;11.532;2022-07-29T14:37:19;30.30;40.90
4960;DHT22;2495;48.200;11.532;2022-07-29T14:42:20;30.30;41.10
4960;DHT22;2495;48.200;11.532;2022-07-29T14:47:22;30.30;41.40
4960;DHT22;2495;48.200;11.532;2022-07-29T14:52:23;30.20;41.60
4960;DHT22;2495;48.200;11.532;2022-07-29T14:57:24;30.10;41.70
4960;DHT22;2495;48.200;11.532;2022-07-29T15:02:25;30.00;42.00
4960;DHT22;2495;48.200;11.532;2022-07-29T15:07:27;29.80;42.30
4960;DHT22;2495;48.200;11.532;2022-07-29T15:12:28;29.70;42.60
4960;DHT22;2495;48.200;11.532;2022-07-29T15:17:29;29.60;42.90
4960;DHT22;2495;48.200;11.532;2022-07-29T15:22:30;29.40;43.10
4960;DHT22;2495;48.200;11.532;2022-07-29T15:27:32;29.20;44.00
4960;DHT22;2495;48.200;11.532;2022-07-29T15:32:33;29.00;44.50
4960;DHT22;2495;48.200;11.532;2022-07-29T15:37:34;28.80;45.40
4960;DHT22;2495;48.200;11.532;2022-07-29T15:42:36;28.70;46.00
4960;DHT22;2495;48.200;11.532;2022-07-29T15:47:37;28.60;46.30
4960;DHT22;2495;48.200;11.532;2022-07-29T15:52:38;28.60;46.80
4960;DHT22;2495;48.200;11.532;2022-07-29T15:57:39;28.60;47.10
4960;DHT22;2495;48.200;11.532;2022-07-29T16:02:41;28.50;47.00
4960;DHT22;2495;48.200;11.532;2022-07-29T16:07:42;28.60;47.30
4960;DHT22;2495;48.200;11.532;2022-07-29T16:12:43;28.50;48.00
4960;DHT22;2495;48.200;11.532;2022-07-29T16:17:45;28.50;47.50
4960;DHT22;2495;48.200;11.532;2022-07-29T16:22:46;28.40;48.00
4960;DHT22;2495;48.200;11.532;2022-07-29T16:27:47;28.30;48.20
4960;DHT22;2495;48.200;11.532;2022-07-29T16:32:48;28.30;48.30
4960;DHT22;2495;48.200;11.532;2022-07-29T16:37:49;28.20;48.60
4960;DHT22;2495;48.200;11.532;2022-07-29T16:42:51;28.10;48.90
4960;DHT22;2495;48.200;11.532;2022-07-29T16:47:53;28.00;49.10
4960;DHT22;2495;48.200;11.532;2022-07-29T16:52:53;28.00;49.40
4960;DHT22;2495;48.200;11.532;2022-07-29T16:57:54;27.90;49.80
4960;DHT22;2495;48.200;11.532;2022-07-29T17:02:56;27.80;49.80
4960;DHT22;2495;48.200;11.532;2022-07-29T17:07:57;27.70;49.50
4960;DHT22;2495;48.200;11.532;2022-07-29T17:12:58;27.60;49.60
4960;DHT22;2495;48.200;11.532;2022-07-29T17:17:59;27.40;49.40
4960;DHT22;2495;48.200;11.532;2022-07-29T17:23:01;27.30;49.30
4960;DHT22;2495;48.200;11.532;2022-07-29T17:28:02;27.20;49.50
4960;DHT22;2495;48.200;11.532;2022-07-29T17:33:03;27.10;50.90
4960;DHT22;2495;48.200;11.532;2022-07-29T17:38:05;27.00;50.80
4960;DHT22;2495;48.200;11.532;2022-07-29T17:43:06;26.60;51.20
4960;DHT22;2495;48.200;11.532;2022-07-29T17:48:07;26.30;51.90
4960;DHT22;2495;48.200;11.532;2022-07-29T17:53:09;25.90;52.70
4960;DHT22;2495;48.200;11.532;2022-07-29T17:58:10;25.40;53.80
4960;DHT22;2495;48.200;11.532;2022-07-29T18:03:11;25.00;54.50
4960;DHT22;2495;48.200;11.532;2022-07-29T18:08:13;24.80;55.30
4960;DHT22;2495;48.200;11.532;2022-07-29T18:13:14;24.60;56.00
4960;DHT22;2495;48.200;11.532;2022-07-29T18:18:18;24.30;57.30
4960;DHT22;2495;48.200;11.532;2022-07-29T18:23:20;24.20;58.10
4960;DHT22;2495;48.200;11.532;2022-07-29T18:28:21;24.10;58.20
4960;DHT22;2495;48.200;11.532;2022-07-29T18:33:22;24.00;58.50
4960;DHT22;2495;48.200;11.532;2022-07-29T18:38:24;23.90;59.10
4960;DHT22;2495;48.200;11.532;2022-07-29T18:43:25;23.80;59.50
4960;DHT22;2495;48.200;11.532;2022-07-29T18:48:27;23.80;59.90
4960;DHT22;2495;48.200;11.532;2022-07-29T18:53:28;23.70;60.30
4960;DHT22;2495;48.200;11.532;2022-07-29T18:58:29;23.60;60.80
4960;DHT22;2495;48.200;11.532;2022-07-29T19:03:31;23.60;61.20
4960;DHT22;2495;48.200;11.532;2022-07-29T19:08:32;23.50;61.50
4960;DHT22;2495;48.200;11.532;2022-07-29T19:13:33;23.40;61.90
4960;DHT22;2495;48.200;11.532;2022-07-29T19:18:35;23.40;62.70
4960;DHT22;2495;48.200;11.532;2022-07-29T19:23:36;23.30;62.80
4960;DHT22;2495;48.200;11.532;2022-07-29T19:28:37;23.20;63.10
4960;DHT22;2495;48.200;11.532;2022-07-29T19:33:39;23.20;63.40
4960;DHT22;2495;48.200;11.532;2022-07-29T19:38:40;23.10;64.00
4960;DHT22;2495;48.200;11.532;2022-07-29T19:43:42;23.10;64.50
4960;DHT22;2495;48.200;11.532;2022-07-29T19:48:43;23.10;64.80
4960;DHT22;2495;48.200;11.532;2022-07-29T19:53:44;23.10;65.40
4960;DHT22;2495;48.200;11.532;2022-07-29T19:58:46;23.00;65.50
4960;DHT22;2495;48.200;11.532;2022-07-29T20:03:47;23.00;65.60
4960;DHT22;2495;48.200;11.532;2022-07-29T20:08:49;22.90;66.20
4960;DHT22;2495;48.200;11.532;2022-07-29T20:13:50;22.80;66.50
4960;DHT22;2495;48.200;11.532;2022-07-29T20:18:52;22.80;67.10
4960;DHT22;2495;48.200;11.532;2022-07-29T20:23:53;22.90;67.20
4960;DHT22;2495;48.200;11.532;2022-07-29T20:28:56;22.80;67.50
4960;DHT22;2495;48.200;11.532;2022-07-29T20:33:59;22.60;68.20
4960;DHT22;2495;48.200;11.532;2022-07-29T20:38:59;22.40;68.40
4960;DHT22;2495;48.200;11.532;2022-07-29T20:44:01;22.30;68.50
4960;DHT22;2495;48.200;11.532;2022-07-29T20:49:02;22.30;69.00
4960;DHT22;2495;48.200;11.532;2022-07-29T20:54:03;22.20;69.30
4960;DHT22;2495;48.200;11.532;2022-07-29T20:59:04;22.10;69.80
4960;DHT22;2495;48.200;11.532;2022-07-29T21:04:06;22.10;70.10
4960;DHT22;2495;48.200;11.532;2022-07-29T21:09:07;22.00;70.10
4960;DHT22;2495;48.200;11.532;2022-07-29T21:14:09;22.00;70.40
4960;DHT22;2495;48.200;11.532;2022-07-29T21:19:10;21.90;70.60
4960;DHT22;2495;48.200;11.532;2022-07-29T21:24:12;21.80;71.50
4960;DHT22;2495;48.200;11.532;2022-07-29T21:29:13;21.90;73.10
4960;DHT22;2495;48.200;11.532;2022-07-29T21:34:15;22.00;72.20
4960;DHT22;2495;48.200;11.532;2022-07-29T21:39:16;22.00;72.10
4960;DHT22;2495;48.200;11.532;2022-07-29T21:44:17;21.90;72.20
4960;DHT22;2495;48.200;11.532;2022-07-29T21:49:19;21.80;73.50
4960;DHT22;2495;48.200;11.532;2022-07-29T21:54:20;22.00;72.60
4960;DHT22;2495;48.200;11.532;2022-07-29T21:59:22;21.90;72.20
4960;DHT22;2495;48.200;11.532;2022-07-29T22:04:23;21.80;73.50
4960;DHT22;2495;48.200;11.532;2022-07-29T22:09:25;21.90;72.70
4960;DHT22;2495;48.200;11.532;2022-07-29T22:14:26;21.90;73.40
4960;DHT22;2495;48.200;11.532;2022-07-29T22:19:27;22.00;72.70
